ACT        NSW        VIC        QLD        SA        WA        TAS        NT        INFO        CALC            by VK5ZD

Past Date/Time: (dd/mm/yyyy hh:mm or blank for current data)    

  Atmospheric Gas Attenuation - ITU Rec 676-11   --------------- dB/100km ---------------
WA Stations Date Time Temp RH % AH g/m3 Dew Point Wind Direction Speed kph Gust kph Barometer mB Rainfall Since 9am 24GHz 47GHz 76GHz 122GHz 134GHz 241GHz
Albany Airport 05/05 02:10 12.5 97 10.67 12 2 6 1027.6 0 24.1 30.4 50.0 131.4 130.4 450.2
Badgingarra 05/05 02:10 13.2 67 7.69 7.2 19 24 1013.1 0 17.7 24.6 36.5 95.6 87.2 299.3
Barimunya 05/05 02:10 16.4 33 4.61 0.1 24 26 1013.1 0 11.0 19.4 24.2 62.8 48.0 161.9
Barrow Island 05/05 02:10 26.1 73 17.87 20.9 26 28 1014.6 0 38.4 37.5 71.0 187.7 204.7 711.2
Bedout Island 05/05 02:10 25.6 44 10.48 12.7 50 56 1014.4 0 23.0 25.5 41.1 108.1 106.7 369.1
Bickley 05/05 02:10 9.9 89 8.31 8.2 19 24 1013.1 0 19.2 26.6 40.6 106.5 99.5 341.7
Boolgeeda 05/05 02:10 20.1 26 4.52 0.2 20 26 1016.8 0 10.7 18.6 23.0 59.6 45.1 152.1
Bridgetown 05/05 02:10 6.5 98 7.35 6.2 0 0 1027.7 0.2 17.2 26.5 38.9 101.8 91.5 313.1
Broome 05/05 02:10 24.4 31 6.9 6.2 24 32 1013.2 0 15.6 20.7 29.2 76.2 67.2 230.3
Bunbury 05/05 02:10 10.3 100 9.58 10.4 13 13 1026.9 0 21.9 29.2 46.5 122.1 118.1 406.8
Busselton Airport 05/05 02:10 7.6 99 7.98 7.5 13 13 1027.1 0 18.5 27.3 41.0 107.4 99.0 339.5
Cape Leeuwin 05/05 02:10 15.8 68 9.15 9.9 22 24 1027.2 0 20.6 26.7 41.6 109.1 104.2 359.0
Cape Naturaliste 05/05 02:10 10.2 92 8.76 9 20 24 1026.4 0 20.1 27.8 43.0 112.6 106.5 366.1
Carnarvon 05/05 02:10 21.6 28 5.31 2.3 15 17 1017 0 12.3 19.3 25.1 65.2 52.5 178.3
Christmas Creek 05/05 02:10 15.4 27 3.55 -3.3 11 13 1020.8 0 8.9 18.4 21.3 54.9 37.4 124.5
Christmas Island 05/05 02:10 26 91 22.15 24.4 11 13 1013.1 0 47.6 45.7 91.5 242.2 271.6 943.7
Cocos Island 05/05 02:10 27.4 94 24.73 26.3 22 30 1011.2 0 52.9 50.1 102.8 272.2 309.0 1073.5
Collie East 05/05 02:10 3.9 97 6.13 3.5 0 0 1013.1 0 14.7 24.6 34.3 89.7 76.3 259.8
Coondewanna 05/05 02:10 15.1 32 4.13 -1.5 7 9 1013.1 0 10.1 19.0 23.0 59.6 43.5 145.9
Cunderdin Airport 05/05 02:10 9.2 90 8.04 7.6 7 7 1026.6 0 18.6 26.8 40.4 105.9 97.7 335.4
Curtin 05/05 02:10 22.9 24 4.9 1.3 15 17 1011.7 0 11.4 18.4 23.3 60.4 47.2 159.9
Dalwallinu 05/05 02:10 7.3 83 6.56 4.6 13 13 1024.8 0 15.5 24.9 35.1 91.7 79.5 271.3
Dwellingup 05/05 02:10 7 95 7.36 6.3 17 19 1026.9 0 17.2 26.4 38.7 101.1 91.0 311.4
Eliwana Airport 05/05 02:10 20.9 27 4.92 1.3 15 17 1013.1 0 11.6 18.9 23.9 62.1 48.6 164.7
Esperance 05/05 02:10 13.6 91 10.71 12.2 4 6 1027.4 0 24.1 30.1 49.4 130.0 129.1 445.7
Esperance Airport 05/05 02:10 11.9 96 10.17 11.3 11 11 1027.5 0 23.0 29.7 48.1 126.5 124.2 428.2
Eucla 05/05 02:10 13.2 95 10.91 12.4 2 4 1025.2 1.6 24.6 30.5 50.5 132.8 132.5 457.4
Fitzroy Crossing 05/05 02:10 20.4 38 6.72 5.6 1012.7 0 15.3 21.3 30.0 78.3 68.5 234.5
Forrest 05/05 02:10 13 92 10.43 11.7 11 13 1025.5 0 23.5 29.7 48.5 127.5 125.9 434.4
Fortescue Dave Forrest 05/05 02:09 15.1 30 3.87 -2.1 15 19 1020.1 0 9.5 18.9 22.4 57.8 41.0 136.9
Garden Island 05/05 02:10 13.2 83 9.53 10.4 13 15 1026.1 0 21.6 28.1 44.5 116.9 112.9 389.1
Geraldton Airport 05/05 02:10 12.3 64 6.95 5.7 11 13 1021.9 0 16.1 24.0 34.4 89.8 79.3 271.4
Gerangamete (Cfa) 05/05 03:50 11.7 94 9.83 10.8 19 22 1013.1 11.2 22.3 28.6 46.1 121.2 118.2 407.5
Giles* 05/05 03:40 9.8 61 5.66 2.6 11 13 1021.1 0 13.5 22.6 30.4 79.2 65.3 221.9
Gingin Airport 05/05 02:10 9.8 87 8.07 7.7 15 15 1025.3 0 18.6 26.7 40.2 105.3 97.3 333.9
Golden Grove 05/05 02:10 11.2 64 6.49 4.7 11 15 1013.1 0 15.2 23.3 32.7 85.5 74.0 252.7
Gooseberry Hill 05/05 02:10 12.4 79 8.63 8.8 28 35 1013.1 0 19.7 26.3 40.6 106.6 100.6 346.0
Gudai-Darri Mine 05/05 02:10 17.4 30 4.45 -0.4 30 33 1013.1 0 10.7 18.9 23.4 60.7 45.7 153.9
Halls Creek 05/05 03:40 22.5 56 11.18 13.3 11 13 1012.9 0 24.6 27.4 45.3 119.3 119.7 414.2
Hopetoun North 05/05 02:10 14.4 84 10.38 11.7 4 4 1026.9 0 23.3 29.2 47.5 124.8 123.0 424.6
Iron Bridge Mine 05/05 02:10 21.9 21 4.05 -1.5 22 26 1013.1 0 9.7 17.6 21.0 54.3 39.3 131.8
Jacup 05/05 02:10 12.6 84 9.29 10 0 0 1027.2 0.2 21.1 27.9 43.9 115.2 110.6 380.8
Jandakot 05/05 02:10 12.6 77 8.52 8.7 19 22 1025.8 0 19.5 26.6 40.6 106.5 99.9 343.4
Kalgoorlie-Boulder 05/05 02:10 8.4 95 8.06 7.6 7 7 1026 0 18.7 27.1 40.9 107.1 99.0 339.7
Kalumburu 05/05 03:40 23.4 97 20.4 22.9 0 0 1010.7 0 44.1 43.5 85.6 226.5 251.8 874.3
Karijini North 05/05 02:10 18 25 3.84 -2.3 20 24 1017.9 0 9.4 18.2 21.5 55.4 39.2 130.9
Karnet 04/05 15:00 19.6 54 9.12 10 2 1013.1 0 20.4 25.1 39.0 102.3 97.8 337.0
Karratha 05/05 02:10 20.6 44 7.87 7.9 15 15 1015.4 0 17.7 23.0 34.0 89.1 81.7 280.9
Katanning Rs 05/05 02:10 7.9 96 7.89 7.3 0 0 1027.6 0 18.3 27.0 40.5 106.1 97.4 333.9
Koolan Island / Koolan Central 05/05 02:10 27.2 28 7.29 7.2 39 46 1013.1 0 16.3 20.6 29.4 77.0 69.0 237.0
Kununurra Airport 05/05 03:40 26.9 57 14.59 17.9 17 19 1011.3 0 31.5 31.4 56.0 148.0 156.3 542.6
Lake Grace 05/05 02:10 7.8 94 7.67 6.9 0 0 1027.5 0 17.9 26.7 39.6 103.7 94.4 323.5
Lancelin (Defence) 05/05 02:10 13.1 81 9.24 9.9 15 20 1024.1 0 21.0 27.6 43.3 113.6 108.9 375.0
Laverton 05/05 02:10 10.6 92 8.98 9.4 7 7 1025.1 0 20.6 28.0 43.6 114.4 108.9 374.7
Learmonth 05/05 02:10 19.7 81 13.75 16.3 9 11 1015.6 0 30.2 32.8 58.0 153.0 160.1 554.7
Legendre Island 05/05 02:10 27.3 41 10.73 12.9 50 52 1014.3 0 23.4 25.4 41.1 108.2 107.4 371.7
Leinster 05/05 02:10 10.9 76 7.56 6.8 11 11 1023.7 0 17.5 25.4 37.5 98.1 88.9 304.8
Leonora Airport 05/05 02:10 10.2 78 7.42 6.5 9 9 1025.2 0 17.2 25.5 37.3 97.6 88.0 301.3
Lombadina 05/05 02:10 24.9 26 5.95 4.1 19 22 1013.1 0 13.6 19.4 26.0 67.7 56.8 193.8
Mandora 05/05 02:10 21.5 24 4.53 0.1 17 24 1015 0 10.7 18.3 22.6 58.6 44.4 149.7
Mandurah 05/05 02:10 12.6 76 8.41 8.6 7 7 1026.3 0 19.2 26.4 40.2 105.4 98.5 338.4
Manjimup 05/05 02:10 9.9 99 9.25 9.8 7 9 1027.5 0 21.2 28.8 45.3 118.9 114.0 392.3
Marble Bar 05/05 02:10 20.7 24 4.32 -0.6 19 22 1017 0 10.3 18.3 22.2 57.5 42.7 143.8
Mardie 05/05 02:10 19.4 71 11.84 14 9 9 1015.4 0 26.2 29.6 50.0 131.7 133.8 462.9
Meekatharra 05/05 02:10 13.7 52 6.16 4 17 20 1021.8 0 14.4 22.4 30.8 80.3 68.2 232.6
Millendon (Swan Valley) 05/05 02:10 13.4 74 8.6 8.8 7 11 1025.6 0 19.6 26.5 40.6 106.3 99.9 343.6
Morawa Airport 05/05 02:10 11.7 68 7.11 6 7 9 1023.4 0 16.5 24.5 35.3 92.3 82.1 281.1
Mount Keith 05/05 02:10 11.7 69 7.22 6.2 11 13 1013.1 0 16.7 24.3 35.3 92.4 82.8 283.6
Mount Magnet Airport 05/05 02:10 13.3 57 6.59 5 13 15 1022.8 0 15.3 23.2 32.6 85.1 73.9 252.5
Munglinup West 05/05 02:10 13.1 82 9.36 10.1 4 4 1027.3 0.2 21.2 27.9 43.9 115.3 110.8 381.7
Newdegate 05/05 02:10 7.5 91 7.29 6.1 0 0 1027.2 0 17.1 26.1 38.1 99.7 89.4 306.1
Newman Airport 05/05 02:10 11 40 4 -2.1 0 0 1020 0 9.9 19.9 24.0 62.0 44.6 149.1
Norseman Airport 05/05 02:10 10 94 8.83 9.1 0 0 1027 0 20.3 28.0 43.4 113.8 107.8 370.7
North Island 05/05 02:10 21.1 52 9.58 10.9 26 30 1021.1 0 21.3 25.6 40.3 105.8 102.2 352.8
Onslow Airport 05/05 02:10 21.2 81 15.01 17.8 13 13 1015.9 0 32.8 34.4 62.4 164.8 175.1 607.4
Paraburdoo 05/05 02:10 19.6 23 3.88 -2.1 22 26 1017.1 0 9.4 17.9 21.2 54.6 38.8 129.8
Pearce 05/05 02:10 14.3 67 8.23 8.3 7 7 1025.1 0 18.8 25.6 38.6 101.1 93.9 322.6
Perth 05/05 02:10 10 94 8.83 9.1 6 6 1026 0 20.3 27.9 43.3 113.7 107.7 370.4
Perth Airport 05/05 02:10 13.7 72 8.53 8.7 6 7 1025.9 0 19.4 26.3 40.1 105.2 98.6 339.2
Port Hedland 05/05 02:10 21.4 28 5.25 2.2 13 15 1015.8 0 12.2 19.3 24.9 64.7 51.9 176.3
Portable Btsa (Dfes) 05/05 02:00 17.5 33 4.92 1.2 7 9 1013.1 0 11.7 19.5 24.9 64.7 50.7 171.6
Portable Btsb (Dfes) 05/05 02:00 9.9 85 7.94 7.6 6 7 1013.1 0 18.4 25.9 39.0 102.4 94.4 324.0
Portable Btsd (Dfes) 05/05 02:00 8.5 90 7.69 6.9 11 13 1013.1 0 17.9 25.9 38.7 101.5 92.7 317.8
Portable Btsf (Dfes) 05/05 02:00 12.8 60 6.72 5.2 17 20 1013.1 0 15.6 23.2 32.9 86.1 75.4 257.6
Portable Btsh (Dfes) 05/05 02:00 8.7 100 8.65 8.7 0 2 1013.1 0.2 19.9 27.5 42.7 112.1 105.8 363.8
Portable Btsj (Dfes) 05/05 02:00 9.1 90 7.99 7.5 6 7 1013.1 0 18.5 26.3 39.7 104.0 96.1 329.7
Portable Btsk (Dfes) 05/05 02:00 19.4 48 8.01 8.1 4 6 1013.1 0 18.1 23.4 34.9 91.5 84.5 290.4
Portable Btsl (Dfes) 05/05 02:00 5.7 92 6.55 4.5 4 6 1013.1 0 15.5 24.8 35.3 92.3 80.2 273.8
Portable Btsm (Dfes) 05/05 02:00 13.9 44 5.28 1.8 4 4 1013.1 0 12.5 20.8 27.3 71.0 57.1 193.8
Portable Btsn (Dfes) 05/05 02:00 13.4 64 7.44 6.8 13 15 1013.1 0 17.1 24.2 35.4 92.7 83.8 287.4
Portable Btso (Dfes) 05/05 02:00 5.7 95 6.76 5 2 4 1013.1 0 16.0 25.2 36.1 94.6 83.1 283.8
Red Rocks Point 05/05 02:10 13.1 91 10.38 11.7 11 13 1025.5 0.4 23.4 29.6 48.2 126.7 125.0 431.4
Rocky Gully South 05/05 02:10 11.3 96 9.79 10.7 6 7 1013.1 0 22.3 28.7 46.1 121.3 118.3 407.6
Roebourne Airport 05/05 02:10 22.3 28 5.53 2.9 20 24 1015.7 0 12.8 19.4 25.5 66.4 54.3 184.7
Rottnest Island 05/05 02:10 14.9 73 9.3 10.1 17 19 1025.4 0 21.0 27.2 42.6 111.8 107.3 369.7
Salmon Gums Rs 05/05 02:10 6.7 100 7.6 6.7 0 0 1013.1 0 17.8 26.3 39.2 102.8 93.6 320.8
Shannon 05/05 02:10 9.3 100 8.99 9.4 4 7 1013.1 1.4 20.7 27.9 43.8 115.1 109.8 377.9
Shark Bay Airport 05/05 02:10 20.2 42 7.34 6.9 20 24 1017.9 0 16.6 22.4 32.4 84.7 76.1 261.0
Solomon Airport 05/05 02:10 18.4 28 4.4 -0.5 15 17 1018 0 10.5 18.8 23.1 59.9 44.8 150.9
Southern Cross Airport 05/05 02:10 8.6 89 7.65 6.9 7 9 1026.7 0 17.8 26.4 39.1 102.3 93.1 319.0
Swanbourne 05/05 02:10 10.9 98 9.75 10.6 6 6 1013.1 0 22.2 28.7 46.2 121.5 118.3 407.7
Telfer 05/05 02:10 15.9 32 4.33 -0.8 24 28 1017.4 0 10.5 19.2 23.6 61.1 45.4 152.7
Thevenard Island 05/05 02:00 24.6 77 17.33 20.3 13 19 1015.5 0 37.4 37.2 70.0 184.9 200.9 697.6
Troughton Island 05/05 03:40 27.5 87 23.02 25.1 11 11 1010.7 0 49.2 46.5 93.8 248.4 279.9 972.5
Truscott 05/05 03:40 24.7 96 21.73 24 0 0 1010.4 0 46.8 45.4 90.7 240.2 269.0 934.4
Walpole North 05/05 02:10 11.8 98 10.32 11.5 0 0 1027.3 1 23.4 30.0 48.9 128.4 126.5 436.3
Wandering 05/05 02:10 2.6 95 5.5 1.9 4 6 1013.1 0 13.4 23.9 32.3 84.2 68.9 233.7
West Angelas 05/05 02:10 14.6 32 4 -1.7 13 17 1020.9 0 9.8 19.2 23.0 59.4 42.7 142.8
West Musgrave Airport 05/05 02:10 12.2 58 6.26 4.2 17 19 1013.1 0 14.7 22.7 31.4 82.1 70.2 239.5
Wiluna Airport 05/05 02:10 10.5 64 6.21 4 13 13 1022.9 0 14.6 23.4 32.3 84.2 71.7 244.5
Witchcliffe West 05/05 02:10 10 100 9.4 10 9 9 1027 0 21.5 29.0 45.9 120.4 116.0 399.2
Wyndham Airport 05/05 03:40 25 75 17.26 20.3 0 0 1010.8 0 37.3 36.7 69.0 182.4 198.1 688.1
Yampi Sound (Defence) 05/05 02:10 18.6 69 10.98 12.8 6 6 1015.8 0 24.4 28.4 46.9 123.5 123.5 426.8

Last Refresh: 05-May-2026 03:42:36

Bureau of Meteorology